Time;durP1;ratioP1;P1;durP2;ratioP2;P2;SDS_P1;SDS_P2;PMS_P1;PMS_P2;Temp;Humidity;BMP_temperature;BMP_pressure;BME280_temperature;BME280_humidity;BME280_pressure;Samples;Min_cycle;Max_cycle;Signal;HPM_P1;HPM_P2
2021/10/13 00:01:27;;;;;;;0.68;0.63;;;;;;;13.62;68.51;101422.28;4908571;29;20054;-77
2021/10/13 00:07:32;;;;;;;0.40;0.40;;;;;;;13.81;68.31;101443.88;4931769;29;20109;-74
2021/10/13 00:09:59;;;;;;;0.45;0.45;;;;;;;13.78;68.21;101446.06;4929798;29;20052;-74
2021/10/13 00:12:25;;;;;;;0.30;0.30;;;;;;;13.77;68.39;101438.09;4901932;29;20036;-71
2021/10/13 00:14:52;;;;;;;0.95;0.43;;;;;;;13.78;68.25;101440.59;4912175;29;20043;-75
2021/10/13 00:17:33;;;;;;;0.47;0.47;;;;;;;13.87;68.49;101448.31;4919233;29;20028;-74
2021/10/13 00:19:59;;;;;;;0.70;0.70;;;;;;;13.95;68.65;101450.59;4931534;29;20056;-74
2021/10/13 00:22:24;;;;;;;0.30;0.30;;;;;;;14.06;68.19;101445.97;4928843;29;20538;-76
2021/10/13 00:24:50;;;;;;;0.40;0.40;;;;;;;14.16;68.10;101450.72;4922963;29;20034;-76
2021/10/13 00:27:15;;;;;;;0.70;0.70;;;;;;;14.28;68.29;101440.34;4915581;29;20028;-73
2021/10/13 00:29:41;;;;;;;3.17;0.80;;;;;;;14.39;68.01;101444.81;4923039;29;20062;-75
2021/10/13 00:32:07;;;;;;;0.43;0.43;;;;;;;14.47;68.04;101436.06;4906167;29;20071;-75
2021/10/13 00:34:33;;;;;;;0.60;0.60;;;;;;;14.57;67.56;101439.94;4923732;29;20034;-75
2021/10/13 00:36:59;;;;;;;0.43;0.43;;;;;;;14.68;68.35;101440.88;4930860;29;20032;-75
2021/10/13 00:39:25;;;;;;;2.33;0.52;;;;;;;14.71;67.85;101435.66;4917444;29;20035;-74
2021/10/13 00:41:50;;;;;;;0.35;0.30;;;;;;;14.80;67.52;101439.53;4919241;29;20028;-74
2021/10/13 00:44:16;;;;;;;0.35;0.35;;;;;;;14.81;67.78;101432.94;4926502;29;20059;-74
2021/10/13 00:46:41;;;;;;;0.57;0.57;;;;;;;14.82;67.28;101440.09;4909066;29;20020;-73
2021/10/13 00:49:07;;;;;;;0.52;0.52;;;;;;;14.80;67.52;101445.03;4928421;29;20032;-73
2021/10/13 00:51:33;;;;;;;0.40;0.40;;;;;;;14.72;67.05;101448.31;4913750;29;20028;-73
2021/10/13 00:53:59;;;;;;;0.55;0.55;;;;;;;14.56;67.54;101443.78;4906370;29;20036;-75
2021/10/13 00:56:25;;;;;;;0.80;0.80;;;;;;;14.43;67.11;101448.69;4887118;29;20467;-73
2021/10/13 00:58:51;;;;;;;0.60;0.60;;;;;;;14.23;67.65;101434.81;4900242;29;20115;-74
2021/10/13 01:01:24;;;;;;;0.40;0.40;;;;;;;14.16;67.56;101445.22;4902724;29;20056;-74
2021/10/13 01:04:14;;;;;;;0.30;0.30;;;;;;;14.00;67.60;101442.38;4917700;29;20028;-74
2021/10/13 01:06:55;;;;;;;0.28;0.28;;;;;;;13.82;67.42;101443.63;4937127;29;20050;-74
2021/10/13 01:09:45;;;;;;;2.90;0.40;;;;;;;13.73;67.84;101448.78;4919738;29;20038;-75
2021/10/13 01:12:20;;;;;;;0.38;0.38;;;;;;;13.59;67.78;101456.63;4909046;29;20043;-74
2021/10/13 01:14:55;;;;;;;0.30;0.30;;;;;;;13.43;67.87;101455.66;4915771;29;20057;-74
2021/10/13 01:17:41;;;;;;;0.40;0.40;;;;;;;13.37;68.27;101464.94;4936988;29;20490;-74
2021/10/13 01:20:13;;;;;;;0.40;0.40;;;;;;;13.29;67.96;101459.88;4935248;29;20054;-73
2021/10/13 01:22:57;;;;;;;0.20;0.20;;;;;;;13.21;68.30;101468.56;4933208;29;20352;-74
2021/10/13 01:25:41;;;;;;;0.90;0.30;;;;;;;13.18;68.52;101477.34;4935998;29;20099;-74
2021/10/13 01:28:12;;;;;;;1.05;0.50;;;;;;;13.10;68.56;101473.97;4927441;29;20048;-74
2021/10/13 01:31:13;;;;;;;0.30;0.30;;;;;;;13.08;67.93;101481.63;4941024;29;20040;-76
2021/10/13 01:33:43;;;;;;;0.10;0.10;;;;;;;13.03;68.53;101478.81;4913728;29;20044;-74
2021/10/13 01:36:14;;;;;;;0.10;0.10;;;;;;;12.98;68.13;101476.03;4935747;29;20104;-74
2021/10/13 01:38:45;;;;;;;0.20;0.20;;;;;;;13.04;68.84;101474.16;4938911;29;20031;-75
2021/10/13 01:41:13;;;;;;;0.25;0.25;;;;;;;13.04;68.72;101476.88;4936225;29;20478;-75
2021/10/13 01:43:44;;;;;;;0.20;0.20;;;;;;;13.10;69.05;101484.94;4936298;29;20032;-74
2021/10/13 01:46:11;;;;;;;0.15;0.15;;;;;;;13.11;68.54;101477.53;4939275;29;20493;-74
2021/10/13 01:48:38;;;;;;;0.20;0.20;;;;;;;13.17;68.77;101472.91;4935868;29;20103;-77
2021/10/13 01:51:05;;;;;;;0.60;0.60;;;;;;;13.22;68.93;101475.75;4914530;29;20075;-77
2021/10/13 01:53:32;;;;;;;2.15;0.90;;;;;;;13.25;68.63;101472.47;4928283;29;20030;-76
2021/10/13 01:55:59;;;;;;;0.75;0.75;;;;;;;13.33;69.38;101477.50;4918346;29;20031;-74
2021/10/13 01:58:26;;;;;;;0.40;0.40;;;;;;;13.39;69.12;101482.00;4928047;29;20122;-76
2021/10/13 02:00:52;;;;;;;0.30;0.30;;;;;;;13.43;68.88;101483.13;4936595;29;20027;-75
2021/10/13 02:03:22;;;;;;;0.40;0.20;;;;;;;13.53;68.93;101492.56;4924416;29;20024;-73
2021/10/13 02:05:55;;;;;;;0.30;0.30;;;;;;;13.58;68.68;101489.84;4931590;29;20048;-74
2021/10/13 02:08:22;;;;;;;0.20;0.20;;;;;;;13.63;68.45;101487.16;4932164;29;20028;-73
2021/10/13 02:10:50;;;;;;;0.22;0.22;;;;;;;13.70;68.56;101496.03;4917071;29;20034;-74
2021/10/13 02:13:17;;;;;;;0.20;0.20;;;;;;;13.75;68.72;101485.06;4927700;29;20039;-76
2021/10/13 02:15:47;;;;;;;0.22;0.22;;;;;;;13.86;68.91;101490.69;4934865;29;20354;-76
2021/10/13 02:18:18;;;;;;;0.30;0.30;;;;;;;13.91;68.39;101493.44;4917488;29;20038;-75
2021/10/13 02:20:44;;;;;;;0.50;0.50;;;;;;;13.96;67.79;101497.06;4938855;29;20099;-75
2021/10/13 02:23:13;;;;;;;0.45;0.45;;;;;;;14.00;67.78;101497.38;4933804;29;20028;-73
2021/10/13 02:25:44;;;;;;;0.40;0.40;;;;;;;14.03;67.50;101496.88;4931850;29;20038;-73
2021/10/13 02:28:14;;;;;;;0.20;0.20;;;;;;;14.11;68.39;101499.09;4934133;29;20031;-73
2021/10/13 02:30:39;;;;;;;0.25;0.25;;;;;;;14.11;67.92;101499.09;4915216;29;20039;-72
2021/10/13 02:33:05;;;;;;;0.30;0.30;;;;;;;14.14;67.71;101495.81;4932542;29;20046;-71
2021/10/13 02:35:31;;;;;;;0.40;0.40;;;;;;;14.17;67.87;101501.91;4929115;29;20032;-72
2021/10/13 02:37:57;;;;;;;0.32;0.32;;;;;;;14.21;67.39;101503.03;4927644;29;20039;-72
2021/10/13 02:40:22;;;;;;;0.30;0.30;;;;;;;14.24;67.35;101502.50;4919625;29;20039;-72
2021/10/13 02:42:48;;;;;;;0.20;0.20;;;;;;;14.26;67.68;101500.31;4927270;29;20038;-73
2021/10/13 02:45:24;;;;;;;0.20;0.20;;;;;;;14.29;67.31;101499.78;4921823;29;20059;-77
2021/10/13 02:48:00;;;;;;;0.30;0.30;;;;;;;14.30;67.88;101506.94;4918537;29;20111;-73
2021/10/13 02:50:44;;;;;;;0.22;0.22;;;;;;;14.30;67.12;101504.19;4918354;29;20437;-73
2021/10/13 02:53:19;;;;;;;0.10;0.10;;;;;;;14.24;67.45;101491.50;4929278;29;20027;-73
2021/10/13 02:55:49;;;;;;;0.60;0.55;;;;;;;14.20;67.22;101509.63;4939084;29;20111;-73
2021/10/13 02:58:40;;;;;;;0.35;0.30;;;;;;;14.19;67.12;101511.53;4938865;29;20024;-73
2021/10/13 03:01:09;;;;;;;0.32;0.32;;;;;;;14.15;67.57;101510.44;4909602;29;20039;-74
2021/10/13 03:03:41;;;;;;;0.50;0.50;;;;;;;14.13;67.22;101513.44;4917187;29;20039;-74
2021/10/13 03:06:10;;;;;;;0.35;0.35;;;;;;;14.10;67.36;101513.13;4942582;29;20047;-75
2021/10/13 03:08:38;;;;;;;0.40;0.40;;;;;;;14.13;67.46;101516.19;4923963;29;20040;-75
2021/10/13 03:11:05;;;;;;;1.40;1.10;;;;;;;14.12;67.84;101517.28;4924338;29;20090;-74
2021/10/13 03:13:37;;;;;;;1.38;1.38;;;;;;;14.10;67.11;101522.19;4936254;29;20067;-75
2021/10/13 03:16:06;;;;;;;1.00;1.00;;;;;;;14.02;67.58;101506.19;4940924;29;20027;-75
2021/10/13 03:18:36;;;;;;;0.60;0.60;;;;;;;14.09;68.04;101516.97;4939342;29;20024;-76
2021/10/13 03:21:03;;;;;;;0.50;0.50;;;;;;;14.03;67.63;101516.13;4922166;29;20051;-75
2021/10/13 03:23:28;;;;;;;0.57;0.57;;;;;;;14.07;67.61;101516.41;4929284;29;20035;-75
2021/10/13 03:26:04;;;;;;;0.43;0.43;;;;;;;14.09;67.69;101511.47;4941013;29;20552;-74
2021/10/13 03:28:31;;;;;;;0.40;0.40;;;;;;;14.07;67.42;101514.47;4934156;29;20390;-75
2021/10/13 03:30:57;;;;;;;0.40;0.40;;;;;;;14.10;67.24;101518.63;4947714;29;20042;-75
2021/10/13 03:33:22;;;;;;;0.30;0.30;;;;;;;14.14;67.33;101526.09;4922091;29;20023;-75
2021/10/13 03:35:47;;;;;;;0.25;0.25;;;;;;;14.10;66.93;101508.44;4888641;29;20038;-75
2021/10/13 03:38:14;;;;;;;0.80;0.57;;;;;;;14.04;67.04;101504.00;4942953;29;20466;-76
2021/10/13 03:40:39;;;;;;;0.25;0.20;;;;;;;14.00;67.22;101497.38;4922869;29;20027;-75
2021/10/13 03:43:05;;;;;;;0.30;0.30;;;;;;;13.95;67.31;101516.59;4903039;29;20027;-74
2021/10/13 03:45:31;;;;;;;0.20;0.20;;;;;;;13.83;67.12;101505.75;4905436;29;20050;-75
2021/10/13 03:47:56;;;;;;;0.30;0.30;;;;;;;13.83;67.73;101511.25;4901060;29;20083;-76
2021/10/13 03:50:22;;;;;;;0.10;0.10;;;;;;;13.77;67.27;101493.91;4936203;29;20036;-75
2021/10/13 03:52:48;;;;;;;0.30;0.30;;;;;;;13.74;67.46;101510.91;4931130;29;20027;-76
2021/10/13 03:55:15;;;;;;;0.30;0.20;;;;;;;13.76;67.68;101516.97;4919689;29;20506;-72
2021/10/13 03:57:42;;;;;;;0.17;0.17;;;;;;;13.69;67.54;101513.59;4934017;29;20102;-72
2021/10/13 04:00:11;;;;;;;0.40;0.40;;;;;;;13.68;67.67;101511.97;4924735;29;20028;-72
2021/10/13 04:02:37;;;;;;;0.20;0.20;;;;;;;13.63;67.86;101514.66;4933743;29;20516;-72
2021/10/13 04:05:16;;;;;;;0.25;0.25;;;;;;;13.67;67.20;101521.28;4931800;29;20075;-75
2021/10/13 04:07:42;;;;;;;0.30;0.30;;;;;;;13.64;67.45;101521.81;4926962;29;20040;-72
2021/10/13 04:10:11;;;;;;;0.20;0.20;;;;;;;13.61;67.63;101511.34;4930775;29;20035;-73
2021/10/13 04:12:37;;;;;;;0.30;0.30;;;;;;;13.66;67.21;101527.88;4941334;29;20059;-73
2021/10/13 04:15:04;;;;;;;0.63;0.30;;;;;;;13.67;67.55;101537.78;4938655;29;20218;-72
2021/10/13 04:17:33;;;;;;;1.50;0.50;;;;;;;13.69;67.68;101535.59;4934296;29;20079;-72
2021/10/13 04:20:06;;;;;;;0.80;0.80;;;;;;;13.75;67.44;101544.72;4902543;29;20071;-72
2021/10/13 04:22:31;;;;;;;0.70;0.70;;;;;;;13.77;67.56;101543.38;4930271;29;20036;-72
2021/10/13 04:24:57;;;;;;;0.73;0.73;;;;;;;13.79;67.76;101543.94;4936211;29;20032;-72
2021/10/13 04:27:22;;;;;;;1.38;1.38;;;;;;;13.82;67.92;101550.00;4906095;29;20035;-76
2021/10/13 04:29:48;;;;;;;1.52;1.48;;;;;;;13.84;67.92;101554.13;4936760;29;20108;-76
2021/10/13 04:32:13;;;;;;;1.10;1.10;;;;;;;13.81;67.31;101537.34;4939257;29;20083;-76
2021/10/13 04:34:39;;;;;;;1.00;1.00;;;;;;;13.82;67.30;101550.84;4932140;29;20032;-76
2021/10/13 04:37:09;;;;;;;0.70;0.70;;;;;;;13.79;67.76;101541.19;4922081;29;20032;-77
2021/10/13 04:39:34;;;;;;;0.70;0.70;;;;;;;13.84;67.45;101558.81;4926175;29;20080;-77
2021/10/13 04:42:00;;;;;;;0.73;0.73;;;;;;;13.79;67.64;101545.88;4941085;29;20040;-78
2021/10/13 04:44:25;;;;;;;0.50;0.50;;;;;;;13.85;67.33;101550.31;4925194;29;20046;-78
2021/10/13 04:46:50;;;;;;;0.50;0.50;;;;;;;13.81;67.67;101538.16;4908050;29;20032;-77
2021/10/13 04:49:16;;;;;;;0.30;0.28;;;;;;;13.84;67.29;101553.31;4899239;29;20055;-75
2021/10/13 04:51:41;;;;;;;0.57;0.57;;;;;;;13.79;67.67;101549.44;4927722;29;20036;-75
2021/10/13 04:54:07;;;;;;;1.08;0.40;;;;;;;13.79;67.34;101552.19;4904314;29;20748;-76
2021/10/13 04:56:32;;;;;;;0.40;0.40;;;;;;;13.78;67.54;101550.53;4937174;29;20035;-77
2021/10/13 04:58:58;;;;;;;0.52;0.52;;;;;;;13.79;68.08;101549.44;4916104;29;20032;-75
2021/10/13 05:01:23;;;;;;;0.40;0.40;;;;;;;13.78;67.98;101547.78;4936806;29;20043;-76
2021/10/13 05:03:49;;;;;;;0.30;0.30;;;;;;;13.83;67.58;101552.50;4916486;29;20044;-74
2021/10/13 05:06:14;;;;;;;0.20;0.20;;;;;;;13.84;67.68;101547.81;4942733;29;20055;-75
2021/10/13 05:08:39;;;;;;;0.20;0.20;;;;;;;13.84;67.23;101547.81;4937433;29;20048;-75
2021/10/13 05:11:05;;;;;;;0.30;0.30;;;;;;;13.82;67.72;101545.34;4934920;29;20024;-75
2021/10/13 05:13:31;;;;;;;0.68;0.68;;;;;;;13.76;67.31;101541.72;4948200;29;20048;-78
2021/10/13 05:15:56;;;;;;;0.70;0.70;;;;;;;13.79;67.24;101546.69;4946119;29;20028;-77
2021/10/13 05:18:22;;;;;;;0.50;0.50;;;;;;;13.76;67.41;101547.19;4946809;29;20130;-77
2021/10/13 05:20:47;;;;;;;0.35;0.35;;;;;;;13.76;67.87;101541.72;4933025;29;20035;-78
2021/10/13 05:23:13;;;;;;;0.50;0.50;;;;;;;13.74;67.43;101546.66;4937837;29;20024;-78
2021/10/13 05:25:38;;;;;;;0.32;0.32;;;;;;;13.75;66.98;101552.97;4928709;29;20038;-78
2021/10/13 05:28:04;;;;;;;0.32;0.32;;;;;;;13.72;67.62;101546.06;4939701;29;20390;-78
2021/10/13 05:30:29;;;;;;;0.43;0.43;;;;;;;13.69;67.61;101551.25;4939890;29;20122;-75
2021/10/13 05:32:55;;;;;;;0.47;0.32;;;;;;;13.68;67.62;101555.94;4925577;29;20118;-75
2021/10/13 05:35:21;;;;;;;0.40;0.40;;;;;;;13.66;67.28;101560.84;4921872;29;20055;-75
2021/10/13 05:37:46;;;;;;;0.50;0.50;;;;;;;13.65;67.86;101559.19;4903530;29;20435;-74
2021/10/13 05:40:12;;;;;;;0.40;0.40;;;;;;;13.65;67.70;101555.63;4916819;29;20035;-77
2021/10/13 05:42:38;;;;;;;0.50;0.50;;;;;;;13.64;67.51;101552.03;4938199;29;20083;-77
2021/10/13 05:45:04;;;;;;;0.40;0.40;;;;;;;13.65;67.87;101558.38;4916852;29;20027;-76
2021/10/13 05:47:30;;;;;;;0.60;0.60;;;;;;;13.63;67.95;101557.81;4929690;29;20035;-76
2021/10/13 05:49:55;;;;;;;0.38;0.30;;;;;;;13.66;67.84;101558.09;4923355;29;20039;-75
2021/10/13 05:52:21;;;;;;;0.47;0.47;;;;;;;13.63;66.98;101550.38;4928467;29;20034;-77
2021/10/13 05:54:46;;;;;;;0.30;0.30;;;;;;;13.60;67.22;101556.41;4931395;29;20051;-77
2021/10/13 05:57:12;;;;;;;1.02;0.88;;;;;;;13.55;67.76;101557.19;4939863;29;20429;-76
2021/10/13 05:59:38;;;;;;;0.57;0.57;;;;;;;13.52;67.74;101554.09;4938111;29;20019;-74
2021/10/13 06:02:04;;;;;;;0.40;0.40;;;;;;;13.50;67.22;101564.53;4901598;29;20043;-77
2021/10/13 06:04:30;;;;;;;0.73;0.73;;;;;;;13.48;67.42;101567.53;4937813;29;20031;-75
2021/10/13 06:06:55;;;;;;;0.50;0.50;;;;;;;13.48;67.48;101566.69;4932897;29;20052;-75
2021/10/13 06:09:21;;;;;;;0.60;0.60;;;;;;;13.47;67.93;101559.56;4933786;29;20032;-78
2021/10/13 06:11:49;;;;;;;0.50;0.40;;;;;;;13.43;68.29;101568.31;4935121;29;20039;-77
2021/10/13 06:14:14;;;;;;;0.55;0.55;;;;;;;13.46;68.07;101577.13;4939793;29;21132;-78
2021/10/13 06:16:40;;;;;;;0.30;0.30;;;;;;;13.40;68.01;101571.59;4938749;29;20032;-79
2021/10/13 06:19:05;;;;;;;0.57;0.57;;;;;;;13.43;68.15;101582.06;4941450;29;20027;-77
2021/10/13 06:21:31;;;;;;;0.32;0.32;;;;;;;13.40;68.05;101574.31;4905678;29;20126;-75
2021/10/13 06:23:56;;;;;;;0.40;0.40;;;;;;;13.39;67.64;101580.91;4932477;29;20385;-75
2021/10/13 06:26:22;;;;;;;0.47;0.47;;;;;;;13.42;68.28;101582.31;4932427;29;20043;-75
2021/10/13 06:28:49;;;;;;;1.65;0.50;;;;;;;13.39;68.28;101580.91;4920135;29;20067;-75
2021/10/13 06:31:14;;;;;;;0.70;0.70;;;;;;;13.41;68.43;101584.22;4937363;29;20055;-75
2021/10/13 06:33:40;;;;;;;0.52;0.52;;;;;;;13.41;67.83;101588.88;4941557;29;20063;-76
2021/10/13 06:36:07;;;;;;;0.45;0.45;;;;;;;13.38;67.79;101581.16;4933391;29;20047;-75
2021/10/13 06:38:33;;;;;;;0.40;0.40;;;;;;;13.36;67.90;101581.41;4937146;29;20020;-76
2021/10/13 06:40:59;;;;;;;0.60;0.60;;;;;;;13.37;67.76;101580.31;4939296;29;20031;-75
2021/10/13 06:43:26;;;;;;;0.60;0.60;;;;;;;13.41;68.29;101575.97;4922351;29;20481;-75
2021/10/13 06:45:52;;;;;;;0.80;0.80;;;;;;;13.35;68.03;101563.25;4925638;29;20047;-73
2021/10/13 06:48:20;;;;;;;1.15;1.15;;;;;;;13.37;68.19;101560.25;4934324;29;20032;-75
2021/10/13 06:50:48;;;;;;;1.05;1.05;;;;;;;13.37;67.96;101561.06;4939689;29;20036;-75
2021/10/13 06:53:14;;;;;;;0.80;0.80;;;;;;;13.43;68.54;101571.06;4933526;29;20039;-77
2021/10/13 06:55:42;;;;;;;2.15;1.00;;;;;;;13.43;67.85;101560.06;4925433;29;20035;-77
2021/10/13 06:58:07;;;;;;;1.83;1.35;;;;;;;13.53;68.69;101570.31;4937003;29;20346;-75
2021/10/13 07:00:33;;;;;;;2.17;2.08;;;;;;;13.54;68.29;101569.25;4935833;29;20113;-77
2021/10/13 07:02:58;;;;;;;2.65;1.83;;;;;;;13.53;68.56;101573.06;4939261;29;20040;-77
2021/10/13 07:05:24;;;;;;;1.60;1.60;;;;;;;13.54;68.48;101584.91;4931202;29;20072;-76
2021/10/13 07:07:50;;;;;;;1.52;1.17;;;;;;;13.57;68.02;101576.97;4922597;29;20043;-77
2021/10/13 07:10:17;;;;;;;0.98;0.98;;;;;;;13.62;67.90;101573.44;4938875;29;20528;-76
2021/10/13 07:12:43;;;;;;;1.35;0.70;;;;;;;13.70;68.34;101575.75;4913702;29;20062;-76
2021/10/13 07:15:23;;;;;;;0.50;0.43;;;;;;;13.82;68.11;101575.59;4938442;29;20699;-77
2021/10/13 07:17:52;;;;;;;0.40;0.40;;;;;;;13.85;67.63;101571.50;4926166;29;20052;-76
2021/10/13 07:20:27;;;;;;;0.43;0.43;;;;;;;13.95;67.46;101577.09;4944630;29;20085;-78
2021/10/13 07:22:53;;;;;;;0.55;0.55;;;;;;;14.04;67.64;101581.00;4917235;29;20055;-77
2021/10/13 07:25:28;;;;;;;0.82;0.82;;;;;;;14.16;67.24;101582.75;4904075;29;20032;-77
2021/10/13 07:27:53;;;;;;;0.93;0.90;;;;;;;14.34;67.13;101579.63;4918003;29;20036;-76
2021/10/13 07:30:24;;;;;;;3.03;1.40;;;;;;;14.58;66.80;101601.25;4919650;29;20269;-77
2021/10/13 07:33:05;;;;;;;2.08;1.98;;;;;;;14.58;66.68;101595.75;4925252;29;20474;-78
2021/10/13 07:35:32;;;;;;;2.08;1.98;;;;;;;14.69;66.60;101602.19;4918770;29;20040;-79
2021/10/13 07:37:58;;;;;;;2.85;2.13;;;;;;;14.68;66.41;101600.53;4936874;29;20031;-79
2021/10/13 07:40:26;;;;;;;2.28;2.08;;;;;;;14.74;66.43;101605.81;4924630;29;20035;-78
2021/10/13 07:42:55;;;;;;;2.92;2.70;;;;;;;14.79;66.13;101608.59;4920225;29;20027;-79
2021/10/13 07:45:22;;;;;;;1.40;1.40;;;;;;;14.74;66.35;101596.72;4961677;29;20027;-78
2021/10/13 07:47:48;;;;;;;1.80;1.70;;;;;;;14.84;66.22;101610.56;4935170;29;20028;-76
2021/10/13 07:50:14;;;;;;;1.35;1.33;;;;;;;14.85;66.16;101601.22;4930883;29;20043;-78
2021/10/13 07:52:40;;;;;;;1.73;1.63;;;;;;;14.95;65.59;101608.69;4932191;29;20051;-77
2021/10/13 07:55:06;;;;;;;0.93;0.93;;;;;;;14.95;65.94;101598.50;4925752;29;20668;-78
2021/10/13 07:57:45;;;;;;;;;;;;;;;;;;;;;
2021/10/13 08:00:12;;;;;;;2.00;1.90;;;;;;;15.10;64.88;101602.41;4944348;29;20092;-77
2021/10/13 08:02:44;;;;;;;2.10;2.00;;;;;;;15.16;64.92;101606.88;4942536;29;20036;-77
2021/10/13 08:05:11;;;;;;;5.97;2.33;;;;;;;15.22;64.75;101610.50;4939754;29;20046;-78
2021/10/13 08:07:37;;;;;;;2.28;2.00;;;;;;;15.21;64.95;101598.63;4928894;29;20485;-77
2021/10/13 08:10:05;;;;;;;2.65;1.92;;;;;;;15.32;65.09;101599.50;4941009;29;20035;-78
2021/10/13 08:12:31;;;;;;;2.40;2.20;;;;;;;15.36;64.49;101606.13;4901064;29;20030;-78
2021/10/13 08:14:59;;;;;;;3.00;2.50;;;;;;;15.42;64.84;101616.09;4926882;29;20386;-78
2021/10/13 08:17:24;;;;;;;2.50;2.33;;;;;;;15.46;64.61;101622.72;4901984;29;20031;-77
2021/10/13 08:19:50;;;;;;;2.40;2.22;;;;;;;15.47;64.33;101623.53;4924468;29;20091;-77
2021/10/13 08:22:15;;;;;;;2.47;2.28;;;;;;;15.49;64.37;101615.81;4902172;29;20055;-78
2021/10/13 08:24:41;;;;;;;3.78;3.47;;;;;;;15.57;64.21;101628.28;4933372;29;20023;-78
2021/10/13 08:27:07;;;;;;;2.95;2.85;;;;;;;15.56;64.42;101626.59;4923210;29;20060;-78
2021/10/13 08:29:32;;;;;;;3.05;2.85;;;;;;;15.62;64.44;101620.81;4923297;29;20043;-78
2021/10/13 08:31:58;;;;;;;6.03;3.53;;;;;;;15.64;64.27;101628.84;4918005;29;20099;-77
2021/10/13 08:34:26;;;;;;;3.55;3.40;;;;;;;15.63;64.60;101632.69;4902835;29;20031;-77
2021/10/13 08:36:51;;;;;;;3.08;2.97;;;;;;;15.65;64.19;101633.25;4933049;29;20115;-78
2021/10/13 08:39:17;;;;;;;2.75;2.65;;;;;;;15.64;64.12;101624.16;4917822;29;20493;-77
2021/10/13 08:41:46;;;;;;;7.00;3.30;;;;;;;15.83;64.26;101646.56;4918897;29;20039;-77
2021/10/13 08:44:15;;;;;;;5.55;3.13;;;;;;;15.84;63.68;101639.97;4923670;29;20040;-77
2021/10/13 08:46:42;;;;;;;3.35;3.15;;;;;;;15.86;63.73;101648.78;4922148;29;20042;-75
2021/10/13 08:49:15;;;;;;;2.60;2.50;;;;;;;15.88;63.74;101641.06;4907470;29;20028;-77
2021/10/13 08:51:41;;;;;;;2.53;2.40;;;;;;;16.05;63.53;101651.03;4912181;29;20492;-76
2021/10/13 08:54:11;;;;;;;2.00;1.90;;;;;;;16.09;63.78;101657.69;4922297;29;20047;-77
2021/10/13 08:56:36;;;;;;;3.95;3.60;;;;;;;16.10;63.42;101648.28;4908898;29;20694;-78
2021/10/13 08:59:02;;;;;;;3.33;3.13;;;;;;;16.21;63.35;101654.66;4919444;29;20108;-77
2021/10/13 09:01:28;;;;;;;2.70;2.47;;;;;;;16.25;63.23;101652.16;4920864;29;20418;-77
2021/10/13 09:03:58;;;;;;;2.70;2.60;;;;;;;16.28;63.00;101654.38;4919757;29;20023;-77
2021/10/13 09:06:44;;;;;;;;;;;;;;;;;;;;;
2021/10/13 09:09:12;;;;;;;4.15;3.85;;;;;;;16.28;62.79;101643.31;4932243;29;20035;-78
2021/10/13 09:11:58;;;;;;;;;;;;;;;;;;;;;
2021/10/13 09:14:31;;;;;;;3.92;3.60;;;;;;;16.29;62.42;101656.84;4918569;29;20046;-78
2021/10/13 09:17:06;;;;;;;3.25;3.05;;;;;;;16.41;62.13;101670.38;4934351;29;20454;-79
2021/10/13 09:19:43;;;;;;;1.45;1.45;;;;;;;16.46;62.84;101656.59;4917724;29;20036;-79
2021/10/13 09:22:11;;;;;;;2.40;2.30;;;;;;;16.57;62.06;101651.88;4932916;29;20028;-79
2021/10/13 09:24:50;;;;;;;3.00;2.75;;;;;;;16.65;62.08;101648.56;4915990;29;20027;-78
2021/10/13 09:27:22;;;;;;;2.70;2.60;;;;;;;16.74;61.65;101663.47;4933715;29;20036;-78
2021/10/13 09:29:49;;;;;;;2.88;2.50;;;;;;;16.75;61.85;101653.28;4935506;29;20063;-79
2021/10/13 09:32:21;;;;;;;2.65;2.53;;;;;;;16.85;61.75;101658.78;4890223;29;20032;-77
2021/10/13 09:34:48;;;;;;;3.08;2.97;;;;;;;16.84;60.96;101651.59;4937462;29;20093;-77
2021/10/13 09:37:13;;;;;;;4.38;4.18;;;;;;;16.86;60.76;101654.91;4937733;29;20055;-77
2021/10/13 09:40:17;;;;;;;3.22;3.03;;;;;;;16.81;60.95;101646.63;4905592;29;20068;-78
2021/10/13 09:42:43;;;;;;;3.10;2.90;;;;;;;16.87;60.87;101640.00;4906446;29;20064;-77
2021/10/13 09:45:15;;;;;;;2.75;2.63;;;;;;;17.13;60.62;101659.31;4919267;29;20035;-76
2021/10/13 09:47:42;;;;;;;2.10;2.00;;;;;;;17.20;61.34;101656.25;4919316;29;20899;-78
2021/10/13 09:50:21;;;;;;;3.42;3.13;;;;;;;17.42;60.38;101665.03;4930895;29;20046;-76
2021/10/13 09:52:46;;;;;;;2.10;2.00;;;;;;;17.44;60.37;101664.75;4930659;29;20047;-75
2021/10/13 09:55:13;;;;;;;2.17;1.98;;;;;;;17.46;60.22;101656.97;4925186;29;20060;-74
2021/10/13 09:57:48;;;;;;;2.88;2.45;;;;;;;17.49;60.31;101650.88;4931604;29;20099;-73
2021/10/13 10:00:34;;;;;;;;;;;;;;;17.62;59.72;101655.81;4931271;29;20035;-74
2021/10/13 10:03:04;;;;;;;1.93;1.83;;;;;;;17.58;60.18;101643.66;4926795;29;19923;-78
2021/10/13 10:05:34;;;;;;;2.50;2.30;;;;;;;17.80;60.14;101659.06;4918037;29;20099;-73
2021/10/13 10:08:17;;;;;;;2.85;2.75;;;;;;;17.94;59.53;101645.44;4934822;29;20042;-79
2021/10/13 10:11:09;;;;;;;4.68;4.38;;;;;;;18.05;58.78;101647.03;4939460;29;20027;-76
2021/10/13 10:13:37;;;;;;;2.38;2.28;;;;;;;18.03;58.49;101648.44;4933891;29;20040;-78
2021/10/13 10:16:06;;;;;;;3.10;3.00;;;;;;;18.10;58.28;101648.94;4938103;29;20056;-78
2021/10/13 10:18:34;;;;;;;1.70;1.65;;;;;;;18.30;58.42;101670.94;4925680;29;20023;-77
2021/10/13 10:21:21;;;;;;;2.53;2.42;;;;;;;18.49;57.31;101661.94;4945312;29;20031;-79
2021/10/13 10:23:58;;;;;;;3.22;3.03;;;;;;;18.49;56.97;101653.63;4952334;29;20011;-78
2021/10/13 10:26:38;;;;;;;1.90;1.85;;;;;;;18.62;57.24;101658.50;4954338;29;20035;-79
2021/10/13 10:30:08;;;;;;;;;;;;;;;;;;;;;
2021/10/13 10:32:29;;;;;;;2.30;2.20;;;;;;;18.70;56.78;101662.56;4930615;29;20402;-76
2021/10/13 10:35:03;;;;;;;2.33;2.22;;;;;;;18.78;56.86;101659.19;4921113;29;20027;-78
2021/10/13 10:37:46;;;;;;;2.47;2.35;;;;;;;18.81;56.53;101664.13;4930292;29;20067;-76
2021/10/13 10:40:30;;;;;;;2.58;2.17;;;;;;;18.84;56.91;101663.56;4931861;29;20106;-75
2021/10/13 10:42:57;;;;;;;2.25;2.15;;;;;;;18.82;56.93;101664.97;4908924;29;20101;-75
2021/10/13 10:45:35;;;;;;;2.08;1.98;;;;;;;18.75;56.74;101651.47;4929787;29;20428;-78
2021/10/13 10:48:00;;;;;;;1.80;1.70;;;;;;;18.86;57.18;101663.28;4924701;29;20034;-78
2021/10/13 10:50:29;;;;;;;2.90;2.67;;;;;;;18.91;57.13;101654.09;4913096;29;20036;-75
2021/10/13 10:53:24;;;;;;;2.70;2.47;;;;;;;19.02;56.20;101664.78;4927247;29;20028;-78
2021/10/13 10:55:53;;;;;;;5.53;2.40;;;;;;;19.01;56.25;101651.22;4919277;29;20490;-77
2021/10/13 10:58:33;;;;;;;;;;;;;;;;;;;;;
2021/10/13 11:01:03;;;;;;;3.00;2.80;;;;;;;19.12;55.70;101643.63;4933789;29;20126;-76
2021/10/13 11:03:36;;;;;;;1.65;1.55;;;;;;;19.29;56.31;101652.31;4923470;29;20036;-76
2021/10/13 11:06:17;;;;;;;2.97;2.75;;;;;;;19.47;55.54;101641.56;4939456;29;20067;-78
2021/10/13 11:08:54;;;;;;;2.67;2.58;;;;;;;19.62;54.95;101644.13;4931779;29;20529;-78
2021/10/13 11:11:31;;;;;;;5.68;2.95;;;;;;;19.90;55.21;101638.75;4922960;29;20049;-77
2021/10/13 11:14:26;;;;;;;2.83;2.72;;;;;;;20.35;54.31;101641.13;4930722;29;20024;-76
2021/10/13 11:17:04;;;;;;;1.83;1.73;;;;;;;20.82;54.72;101646.75;4922083;29;20026;-77
2021/10/13 11:19:43;;;;;;;1.70;1.63;;;;;;;21.53;53.92;101638.16;4934751;29;20012;-79
2021/10/13 11:22:31;;;;;;;;;;;;;;;;;;;;;
2021/10/13 11:25:30;;;;;;;;;;;;;;;;;;;;;
2021/10/13 11:31:42;;;;;;;9.13;2.15;;;;;;;23.14;49.21;101634.81;4846824;29;20061;-80
2021/10/13 11:34:08;;;;;;;3.65;1.88;;;;;;;23.25;49.48;101642.88;4902954;29;20039;-80
2021/10/13 11:36:56;;;;;;;1.17;0.90;;;;;;;23.38;49.72;101641.94;4890038;29;20115;-80
2021/10/13 11:39:43;;;;;;;0.20;0.20;;;;;;;23.59;49.07;101649.69;4940251;29;20039;-81
2021/10/13 11:42:23;;;;;;;1.00;1.00;;;;;;;23.57;47.68;101624.06;4917487;29;20027;-80
2021/10/13 11:45:01;;;;;;;;;;;;;;;;;;;;;
2021/10/13 11:47:32;;;;;;;1.08;0.55;;;;;;;23.52;48.34;101634.25;4929674;29;20023;-80
2021/10/13 11:50:14;;;;;;;;;;;;;;;;;;;;;
2021/10/13 11:52:47;;;;;;;1.27;1.05;;;;;;;23.24;45.89;101621.69;4931073;29;20030;-77
2021/10/13 11:56:00;;;;;;;1.50;0.95;;;;;;;23.03;46.73;101638.97;4920670;29;20024;-77
2021/10/13 11:58:31;;;;;;;0.50;0.50;;;;;;;22.72;47.01;101625.88;4908966;29;20036;-75